createdAt,value
2023-04-04T00:00:01.846Z,3.6
2023-04-04T00:01:04.120Z,3.6
2023-04-04T00:02:06.593Z,4.1
2023-04-04T00:03:09.881Z,3.5
2023-04-04T00:04:13.192Z,3.7
2023-04-04T00:05:16.299Z,3.6
2023-04-04T00:06:19.739Z,3.7
2023-04-04T00:07:22.872Z,3.7
2023-04-04T00:08:26.300Z,4.1
2023-04-04T00:09:29.596Z,3.6
2023-04-04T00:10:32.877Z,3.8
2023-04-04T00:11:36.153Z,3.6
2023-04-04T00:12:39.499Z,3.7
2023-04-04T00:13:42.763Z,3.6
2023-04-04T00:14:45.909Z,3.7
2023-04-04T00:15:48.390Z,3.5
2023-04-04T00:16:51.681Z,4
2023-04-04T00:17:54.956Z,4
2023-04-04T00:18:58.097Z,3.9
2023-04-04T00:20:01.398Z,3.8
2023-04-04T00:21:04.876Z,3.6
2023-04-04T00:22:08.040Z,3.5
2023-04-04T00:23:10.421Z,3.2
2023-04-04T00:24:12.750Z,3.7
2023-04-04T00:25:15.055Z,3.5
2023-04-04T00:26:17.432Z,3.4
2023-04-04T00:27:20.650Z,3.5
2023-04-04T00:28:24.872Z,3.5
2023-04-04T00:29:28.018Z,3.3
2023-04-04T00:30:31.425Z,3.5
2023-04-04T00:31:34.582Z,3.6
2023-04-04T00:32:38.074Z,3.8
2023-04-04T00:33:41.225Z,3.6
2023-04-04T00:34:44.462Z,3.6
2023-04-04T00:35:47.900Z,3.3
2023-04-04T00:36:51.215Z,3.3
2023-04-04T00:37:54.502Z,3.4
2023-04-04T00:38:57.781Z,3.6
2023-04-04T00:40:00.022Z,3.3
2023-04-04T00:41:03.297Z,3.6
2023-04-04T00:42:06.664Z,3.6
2023-04-04T00:43:09.994Z,3.4
2023-04-04T00:44:13.092Z,3.5
2023-04-04T00:45:16.393Z,3.7
2023-04-04T00:46:19.882Z,3.4
2023-04-04T00:47:22.143Z,3.3
2023-04-04T00:48:24.324Z,3.3
2023-04-04T00:49:27.763Z,3
2023-04-04T00:50:31.071Z,3.4
2023-04-04T00:51:34.361Z,3.3
2023-04-04T00:52:36.710Z,3.4
2023-04-04T00:53:39.903Z,3.2
2023-04-04T00:54:43.273Z,3.4
2023-04-04T00:55:46.543Z,3.4
2023-04-04T00:56:49.833Z,3.1
2023-04-04T00:57:53.116Z,3.5
2023-04-04T00:58:56.412Z,3.6
2023-04-04T01:01:03.020Z,3
2023-04-04T01:02:06.123Z,3.5
2023-04-04T01:03:09.493Z,3.4
2023-04-04T01:04:12.698Z,3.9
2023-04-04T01:05:16.240Z,3.9
2023-04-04T01:06:19.296Z,3.5
2023-04-04T01:07:21.800Z,3.1
2023-04-04T01:08:25.108Z,3.3
2023-04-04T01:09:28.391Z,3.5
2023-04-04T01:10:30.797Z,3.4
2023-04-04T01:11:33.090Z,3
2023-04-04T01:12:35.355Z,3.3
2023-04-04T01:13:37.478Z,3.2
2023-04-04T01:14:40.793Z,3.6
2023-04-04T01:15:43.318Z,3.1
2023-04-04T01:16:45.569Z,3.4
2023-04-04T01:17:48.855Z,3
2023-04-04T01:18:51.972Z,2.9
2023-04-04T01:19:55.338Z,2.8
2023-04-04T01:20:58.742Z,3.2
2023-04-04T01:22:02.009Z,2.9
2023-04-04T01:23:05.273Z,3.6
2023-04-04T01:24:08.514Z,3.1
2023-04-04T01:25:11.824Z,3
2023-04-04T01:26:15.209Z,2.9
2023-04-04T01:27:18.615Z,3.3
2023-04-04T01:28:22.033Z,2.9
2023-04-04T01:29:25.340Z,3.1
2023-04-04T01:30:27.523Z,2.9
2023-04-04T01:31:30.915Z,2.9
2023-04-04T01:32:34.094Z,2.5
2023-04-04T01:33:37.400Z,2.7
2023-04-04T01:34:40.655Z,3
2023-04-04T01:35:44.116Z,2.7
2023-04-04T01:36:47.264Z,2.8
2023-04-04T01:37:49.675Z,2.7
2023-04-04T01:38:52.016Z,2.5
2023-04-04T01:39:54.297Z,2.5
2023-04-04T01:40:56.586Z,2.7
2023-04-04T01:41:59.945Z,2.7
2023-04-04T01:43:03.179Z,2.7
2023-04-04T01:44:06.419Z,2.8
2023-04-04T01:45:09.803Z,2.7
2023-04-04T01:46:13.090Z,2.8
2023-04-04T01:47:16.252Z,2.8
2023-04-04T01:48:19.538Z,2.6
2023-04-04T01:49:23.010Z,2.7
2023-04-04T01:50:26.305Z,2.7
2023-04-04T01:51:29.422Z,2.7
2023-04-04T01:52:32.884Z,2.5
2023-04-04T01:53:36.150Z,2.5
2023-04-04T01:54:38.410Z,2.5
2023-04-04T01:55:41.758Z,2.5
2023-04-04T01:56:44.884Z,2.6
2023-04-04T01:57:48.188Z,2.7
2023-04-04T01:58:51.578Z,2.6
2023-04-04T01:59:54.769Z,2.3
2023-04-04T02:00:58.148Z,2.7
2023-04-04T02:02:00.388Z,2.5
2023-04-04T02:03:02.880Z,2.6
2023-04-04T02:04:06.087Z,2.4
2023-04-04T02:05:08.296Z,2.6
2023-04-04T02:06:10.749Z,2.6
2023-04-04T02:07:14.065Z,2.4
2023-04-04T02:08:17.335Z,2.2
2023-04-04T02:09:20.459Z,2.3
2023-04-04T02:10:23.926Z,2.2
2023-04-04T02:11:27.037Z,2.5
2023-04-04T02:12:30.505Z,2.3
2023-04-04T02:13:33.769Z,2.5
2023-04-04T02:14:36.930Z,2.4
2023-04-04T02:15:40.310Z,2.3
2023-04-04T02:16:43.686Z,2.3
2023-04-04T02:17:46.811Z,2.4
2023-04-04T02:18:50.247Z,2.4
2023-04-04T02:19:52.619Z,2.3
2023-04-04T02:20:55.689Z,2.5
2023-04-04T02:21:59.160Z,2.3
2023-04-04T02:23:02.428Z,2.3
2023-04-04T02:24:05.560Z,2.4
2023-04-04T02:25:08.863Z,2.5
2023-04-04T02:26:12.196Z,2.4
2023-04-04T02:27:14.645Z,2.3
2023-04-04T02:28:16.957Z,2.2
2023-04-04T02:29:19.274Z,2.3
2023-04-04T02:30:21.969Z,2.3
2023-04-04T02:31:25.474Z,2.3
2023-04-04T02:32:28.690Z,2.2
2023-04-04T02:33:32.031Z,2.4
2023-04-04T02:34:35.345Z,2.4
2023-04-04T02:35:38.522Z,2.09
2023-04-04T02:36:41.845Z,2.4
2023-04-04T02:37:45.077Z,2.6
2023-04-04T02:38:48.295Z,2.5
2023-04-04T02:39:51.753Z,2.5
2023-04-04T02:40:55.025Z,2.2
2023-04-04T02:41:58.351Z,2.3
2023-04-04T02:43:01.576Z,2.4
2023-04-04T02:44:04.838Z,2.5
2023-04-04T02:45:07.165Z,2.5
2023-04-04T02:46:10.492Z,2.5
2023-04-04T02:47:13.679Z,2.5
2023-04-04T02:48:16.967Z,2.7
2023-04-04T02:49:20.339Z,2.6
2023-04-04T02:50:23.554Z,2.5
2023-04-04T02:51:25.823Z,2.6
2023-04-04T02:52:28.264Z,2.5
2023-04-04T02:53:31.569Z,2.7
2023-04-04T02:54:33.875Z,2.6
2023-04-04T02:55:36.061Z,2.7
2023-04-04T02:56:39.467Z,2.7
2023-04-04T02:57:42.861Z,2.8
2023-04-04T02:58:45.936Z,2.5
2023-04-04T02:59:49.427Z,2.5
2023-04-04T03:00:52.687Z,2.8
2023-04-04T03:01:55.787Z,2.6
2023-04-04T03:02:59.235Z,2.9
2023-04-04T03:04:02.532Z,2.8
2023-04-04T03:05:05.840Z,2.8
2023-04-04T03:06:09.008Z,2.7
2023-04-04T03:07:12.334Z,2.8
2023-04-04T03:08:15.570Z,3.1
2023-04-04T03:09:17.908Z,2.6
2023-04-04T03:10:21.305Z,2.8
2023-04-04T03:11:25.072Z,2.8
2023-04-04T03:12:28.356Z,2.8
2023-04-04T03:13:31.834Z,2.9
2023-04-04T03:14:35.031Z,2.9
2023-04-04T03:15:38.437Z,3
2023-04-04T03:16:40.725Z,2.9
2023-04-04T03:17:43.022Z,2.6
2023-04-04T03:18:46.283Z,2.9
2023-04-04T03:19:48.620Z,2.7
2023-04-04T03:20:52.031Z,2.8
2023-04-04T03:21:55.179Z,2.5
2023-04-04T03:22:58.587Z,3
2023-04-04T03:24:01.886Z,2.7
2023-04-04T03:25:05.077Z,2.5
2023-04-04T03:26:08.370Z,2.8
2023-04-04T03:27:11.813Z,2.8
2023-04-04T03:28:15.101Z,2.6
2023-04-04T03:29:18.286Z,2.8
2023-04-04T03:30:22.243Z,2.7
2023-04-04T03:31:25.581Z,2.6
2023-04-04T03:32:28.723Z,2.5
2023-04-04T03:33:31.127Z,2.6
2023-04-04T03:34:34.416Z,2.5
2023-04-04T03:35:37.571Z,2.6
2023-04-04T03:36:41.055Z,2.6
2023-04-04T03:37:44.154Z,2.6
2023-04-04T03:38:47.556Z,2.6
2023-04-04T03:39:50.893Z,2.6
2023-04-04T03:40:53.187Z,2.3
2023-04-04T03:41:55.376Z,2.7
2023-04-04T03:42:57.820Z,2.6
2023-04-04T03:44:00.150Z,2.6
2023-04-04T03:45:03.272Z,2.3
2023-04-04T03:46:06.546Z,2.3
2023-04-04T03:47:09.842Z,2.5
2023-04-04T03:48:13.317Z,2.3
2023-04-04T03:49:16.569Z,2.4
2023-04-04T03:50:19.715Z,2.6
2023-04-04T03:51:23.160Z,2.5
2023-04-04T03:52:26.404Z,2.5
2023-04-04T03:53:29.767Z,2.5
2023-04-04T03:54:32.898Z,2.5
2023-04-04T03:55:36.191Z,2.3
2023-04-04T03:56:39.595Z,2.5
2023-04-04T03:57:41.776Z,2.6
2023-04-04T03:58:45.085Z,2.4
2023-04-04T03:59:48.363Z,2.5
2023-04-04T04:00:51.725Z,2.4
2023-04-04T04:01:55.104Z,2.5
2023-04-04T04:02:58.384Z,2.3
2023-04-04T04:04:01.653Z,2.6
2023-04-04T04:05:03.967Z,2.6
2023-04-04T04:06:06.153Z,2.4
2023-04-04T04:07:08.633Z,2.7
2023-04-04T04:08:10.786Z,2.5
2023-04-04T04:09:14.163Z,2.4
2023-04-04T04:10:17.486Z,2.3
2023-04-04T04:11:20.852Z,2.4
2023-04-04T04:12:24.141Z,2.5
2023-04-04T04:13:27.373Z,2.3
2023-04-04T04:14:30.762Z,2.5
2023-04-04T04:15:33.963Z,2.3
2023-04-04T04:16:37.128Z,2.6
2023-04-04T04:17:40.549Z,2.3
2023-04-04T04:18:43.692Z,2.4
2023-04-04T04:19:47.085Z,2.2
2023-04-04T04:20:50.431Z,2.4
2023-04-04T04:21:52.577Z,2.3
2023-04-04T04:22:56.013Z,2.09
2023-04-04T04:23:58.186Z,2.3
2023-04-04T04:25:01.497Z,2.2
2023-04-04T04:26:04.947Z,2.2
2023-04-04T04:27:08.210Z,2.2
2023-04-04T04:28:11.361Z,2
2023-04-04T04:29:13.667Z,2.4
2023-04-04T04:30:16.191Z,2.09
2023-04-04T04:31:18.446Z,2.3
2023-04-04T04:32:20.755Z,2.2
2023-04-04T04:33:24.070Z,2.09
2023-04-04T04:34:27.331Z,2.09
2023-04-04T04:36:33.940Z,2
2023-04-04T04:37:37.066Z,1.9
2023-04-04T04:38:40.484Z,2.2
2023-04-04T04:39:43.801Z,2.09
2023-04-04T04:40:46.981Z,2.2
2023-04-04T04:41:50.327Z,1.9
2023-04-04T04:42:53.720Z,2.2
2023-04-04T04:43:57.003Z,2.09
2023-04-04T04:45:00.117Z,1.9
2023-04-04T04:46:02.554Z,2
2023-04-04T04:47:05.717Z,2
2023-04-04T04:48:09.147Z,1.8
2023-04-04T04:49:12.443Z,1.8
2023-04-04T04:50:15.582Z,2.09
2023-04-04T04:51:19.522Z,1.9
2023-04-04T04:52:22.713Z,1.8
2023-04-04T04:53:26.135Z,1.8
2023-04-04T04:54:28.339Z,2
2023-04-04T04:55:30.536Z,1.7
2023-04-04T04:56:33.984Z,1.9
2023-04-04T04:57:37.277Z,1.8
2023-04-04T04:58:39.633Z,1.9
2023-04-04T04:59:41.764Z,1.8
2023-04-04T05:00:45.034Z,1.8
2023-04-04T05:01:48.539Z,1.7
2023-04-04T05:02:51.817Z,1.9
2023-04-04T05:03:55.103Z,1.9
2023-04-04T05:04:58.202Z,1.7
2023-04-04T05:06:01.677Z,2
2023-04-04T05:07:04.794Z,1.7
2023-04-04T05:08:08.282Z,1.8
2023-04-04T05:09:11.511Z,1.7
2023-04-04T05:10:14.681Z,2.09
2023-04-04T05:11:18.025Z,2
2023-04-04T05:12:21.411Z,1.7
2023-04-04T05:13:23.531Z,1.7
2023-04-04T05:14:27.015Z,1.8
2023-04-04T05:15:30.298Z,1.9
2023-04-04T05:16:33.676Z,1.8
2023-04-04T05:17:36.924Z,1.8
2023-04-04T05:18:40.115Z,1.7
2023-04-04T05:19:43.431Z,1.6
2023-04-04T05:20:45.639Z,1.8
2023-04-04T05:21:47.915Z,1.8
2023-04-04T05:22:50.318Z,1.7
2023-04-04T05:23:52.695Z,1.7
2023-04-04T05:24:55.847Z,1.9
2023-04-04T05:25:59.225Z,1.9
2023-04-04T05:27:02.577Z,1.9
2023-04-04T05:28:05.785Z,1.7
2023-04-04T05:29:09.055Z,2
2023-04-04T05:30:12.449Z,2
2023-04-04T05:31:15.774Z,2.09
2023-04-04T05:32:19.609Z,2
2023-04-04T05:33:22.881Z,2
2023-04-04T05:34:26.074Z,2
2023-04-04T05:35:29.397Z,2.09
2023-04-04T05:36:32.634Z,2.2
2023-04-04T05:37:35.039Z,2.09
2023-04-04T05:38:38.409Z,1.9
2023-04-04T05:39:41.618Z,2.09
2023-04-04T05:41:48.091Z,2.09
2023-04-04T05:42:51.556Z,2
2023-04-04T05:43:54.784Z,2.3
2023-04-04T05:44:57.987Z,2.3
2023-04-04T05:46:00.417Z,2.2
2023-04-04T05:47:02.759Z,2.2
2023-04-04T05:48:04.903Z,2.2
2023-04-04T05:49:07.392Z,2.09
2023-04-04T05:50:10.484Z,2.09
2023-04-04T05:51:13.793Z,2.2
2023-04-04T05:52:17.169Z,2.2
2023-04-04T05:53:20.465Z,2.09
2023-04-04T05:54:23.822Z,2.4
2023-04-04T05:55:26.950Z,2.2
2023-04-04T05:56:30.425Z,2.2
2023-04-04T05:57:33.551Z,2.2
2023-04-04T05:58:36.864Z,2.2
2023-04-04T05:59:40.129Z,2.09
2023-04-04T06:00:43.594Z,2.3
2023-04-04T06:01:46.882Z,2.5
2023-04-04T06:02:49.206Z,2.6
2023-04-04T06:03:52.495Z,2.09
2023-04-04T06:04:55.746Z,2.4
2023-04-04T06:05:59.096Z,2.09
2023-04-04T06:07:02.321Z,2.09
2023-04-04T06:08:05.632Z,2.3
2023-04-04T06:09:08.951Z,2.4
2023-04-04T06:10:11.234Z,2.4
2023-04-04T06:11:13.564Z,2.6
2023-04-04T06:12:16.930Z,2.5
2023-04-04T06:13:20.169Z,2.09
2023-04-04T06:14:22.781Z,2.4
2023-04-04T06:15:25.003Z,2.2
2023-04-04T06:16:28.292Z,2.3
2023-04-04T06:17:31.430Z,2.2
2023-04-04T06:18:34.880Z,2.2
2023-04-04T06:19:38.164Z,2.4
2023-04-04T06:20:41.429Z,2.2
2023-04-04T06:21:44.607Z,2.3
2023-04-04T06:22:48.081Z,2.09
2023-04-04T06:23:51.175Z,2.3
2023-04-04T06:24:54.652Z,2.4
2023-04-04T06:25:57.962Z,2.09
2023-04-04T06:27:01.251Z,2.3
2023-04-04T06:28:04.598Z,2.3
2023-04-04T06:29:06.830Z,2.5
2023-04-04T06:30:10.124Z,2.3
2023-04-04T06:31:13.414Z,2.3
2023-04-04T06:32:16.529Z,2.3
2023-04-04T06:33:19.837Z,2.2
2023-04-04T06:34:23.275Z,2.3
2023-04-04T06:35:26.424Z,2.4
2023-04-04T06:36:28.727Z,2.3
2023-04-04T06:37:31.057Z,2.09
2023-04-04T06:38:33.335Z,2.5
2023-04-04T06:39:35.645Z,2.2
2023-04-04T06:40:39.107Z,2.4
2023-04-04T06:41:42.320Z,2.3
2023-04-04T06:42:45.527Z,2
2023-04-04T06:43:48.818Z,2.09
2023-04-04T06:44:52.129Z,2.09
2023-04-04T06:45:55.398Z,2.09
2023-04-04T06:46:58.743Z,1.9
2023-04-04T06:48:02.042Z,2.09
2023-04-04T06:49:05.290Z,2.09
2023-04-04T06:50:08.566Z,2.09
2023-04-04T06:51:11.866Z,2.3
2023-04-04T06:52:15.154Z,2.2
2023-04-04T06:53:17.820Z,2.09
2023-04-04T06:54:20.813Z,1.9
2023-04-04T06:55:24.044Z,1.8
2023-04-04T06:56:27.388Z,2.2
2023-04-04T06:57:30.648Z,2
2023-04-04T06:58:33.917Z,2.09
2023-04-04T06:59:37.235Z,1.8
2023-04-04T07:00:39.649Z,1.9
2023-04-04T07:01:41.921Z,2.2
2023-04-04T07:02:44.188Z,2
2023-04-04T07:03:46.606Z,1.9
2023-04-04T07:04:49.738Z,2
2023-04-04T07:05:53.119Z,1.9
2023-04-04T07:06:56.336Z,1.9
2023-04-04T07:07:59.610Z,1.9
2023-04-04T07:09:02.947Z,1.7
2023-04-04T07:10:06.220Z,1.7
2023-04-04T07:11:09.600Z,1.8
2023-04-04T07:12:12.806Z,1.7
2023-04-04T07:13:16.064Z,1.9
2023-04-04T07:14:19.722Z,1.9
2023-04-04T07:15:23.036Z,1.8
2023-04-04T07:16:26.372Z,1.6
2023-04-04T07:17:28.640Z,1.8
2023-04-04T07:18:32.002Z,1.6
2023-04-04T07:19:35.198Z,1.8
2023-04-04T07:20:38.731Z,2
2023-04-04T07:21:41.929Z,1.8
2023-04-04T07:22:45.153Z,1.7
2023-04-04T07:23:48.397Z,1.6
2023-04-04T07:24:50.680Z,1.7
2023-04-04T07:25:53.021Z,1.9
2023-04-04T07:26:55.361Z,1.6
2023-04-04T07:27:57.639Z,1.7
2023-04-04T07:29:00.909Z,1.9
2023-04-04T07:30:04.216Z,1.8
2023-04-04T07:31:07.596Z,1.5
2023-04-04T07:32:10.824Z,1.6
2023-04-04T07:33:14.177Z,1.7
2023-04-04T07:34:17.392Z,1.8
2023-04-04T07:35:20.647Z,1.5
2023-04-04T07:36:23.936Z,1.5
2023-04-04T07:37:27.255Z,1.6
2023-04-04T07:38:30.542Z,1.7
2023-04-04T07:39:33.883Z,1.8
2023-04-04T07:40:37.104Z,1.8
2023-04-04T07:41:39.455Z,1.6
2023-04-04T07:42:42.708Z,1.5
2023-04-04T07:43:46.233Z,1.9
2023-04-04T07:44:49.288Z,1.6
2023-04-04T07:45:52.611Z,1.7
2023-04-04T07:46:55.857Z,1.7
2023-04-04T07:47:59.175Z,1.6
2023-04-04T07:49:01.495Z,1.6
2023-04-04T07:50:03.778Z,1.5
2023-04-04T07:51:07.291Z,1.5
2023-04-04T07:52:10.376Z,1.5
2023-04-04T07:53:12.675Z,1.5
2023-04-04T07:54:14.995Z,1.8
2023-04-04T07:55:17.312Z,1.6
2023-04-04T07:56:20.588Z,1.6
2023-04-04T07:57:23.871Z,1.5
2023-04-04T07:58:27.180Z,1.6
2023-04-04T07:59:30.503Z,1.3
2023-04-04T08:00:33.882Z,1.4
2023-04-04T08:01:37.125Z,1.7
2023-04-04T08:02:40.373Z,1.5
2023-04-04T08:03:43.651Z,1.6
2023-04-04T08:04:46.967Z,1.7
2023-04-04T08:05:50.221Z,1.7
2023-04-04T08:06:53.526Z,1.9
2023-04-04T08:07:56.804Z,1.8
2023-04-04T08:08:59.112Z,1.4
2023-04-04T08:10:02.402Z,1.7
2023-04-04T08:11:05.697Z,1.8
2023-04-04T08:12:09.019Z,1.7
2023-04-04T08:13:12.281Z,1.6
2023-04-04T08:14:15.675Z,1.6
2023-04-04T08:15:17.908Z,1.7
2023-04-04T08:16:20.237Z,1.7
2023-04-04T08:17:22.868Z,1.8
2023-04-04T08:18:25.176Z,1.7
2023-04-04T08:19:28.487Z,1.6
2023-04-04T08:20:31.895Z,1.6
2023-04-04T08:21:35.050Z,1.6
2023-04-04T08:22:38.347Z,1.7
2023-04-04T08:23:41.703Z,1.8
2023-04-04T08:24:44.941Z,1.8
2023-04-04T08:25:48.253Z,1.7
2023-04-04T08:26:51.527Z,1.6
2023-04-04T08:27:54.850Z,1.7
2023-04-04T08:28:58.094Z,1.8
2023-04-04T08:30:01.382Z,1.8
2023-04-04T08:31:04.678Z,1.7
2023-04-04T08:32:07.009Z,1.7
2023-04-04T08:33:10.282Z,1.6
2023-04-04T08:34:13.606Z,1.6
2023-04-04T08:35:16.875Z,1.7
2023-04-04T08:36:20.162Z,1.8
2023-04-04T08:37:23.610Z,2
2023-04-04T08:38:26.780Z,1.8
2023-04-04T08:39:29.077Z,1.8
2023-04-04T08:40:31.486Z,1.7
2023-04-04T08:41:33.747Z,1.9
2023-04-04T08:42:35.984Z,1.7
2023-04-04T08:43:39.274Z,1.7
2023-04-04T08:44:42.551Z,1.8
2023-04-04T08:45:45.922Z,1.8
2023-04-04T08:46:49.146Z,2.2
2023-04-04T08:47:52.470Z,1.8
2023-04-04T08:48:55.732Z,1.9
2023-04-04T08:49:59.053Z,1.7
2023-04-04T08:51:02.414Z,1.6
2023-04-04T08:52:05.656Z,1.9
2023-04-04T08:53:09.000Z,1.8
2023-04-04T08:54:12.263Z,1.6
2023-04-04T08:55:15.579Z,1.8
2023-04-04T08:56:17.859Z,1.6
2023-04-04T08:57:21.126Z,1.8
2023-04-04T08:58:24.420Z,1.8
2023-04-04T08:59:27.720Z,1.5
2023-04-04T09:00:31.121Z,1.7
2023-04-04T09:01:34.375Z,1.8
2023-04-04T09:02:37.579Z,1.6
2023-04-04T09:03:39.964Z,1.5
2023-04-04T09:04:42.270Z,1.5
2023-04-04T09:05:45.517Z,1.6
2023-04-04T09:06:47.968Z,1.8
2023-04-04T09:07:50.155Z,1.5
2023-04-04T09:08:53.402Z,1.5
2023-04-04T09:09:56.786Z,1.4
2023-04-04T09:11:00.063Z,1.5
2023-04-04T09:12:03.363Z,1.6
2023-04-04T09:13:06.701Z,1.5
2023-04-04T09:14:09.917Z,1.5
2023-04-04T09:15:13.214Z,1.4
2023-04-04T09:16:16.463Z,1.6
2023-04-04T09:17:20.071Z,1.5
2023-04-04T09:18:23.463Z,1.4
2023-04-04T09:19:26.677Z,1.6
2023-04-04T09:20:30.095Z,1.3
2023-04-04T09:21:32.320Z,1.4
2023-04-04T09:22:35.643Z,1.4
2023-04-04T09:23:38.840Z,1.4
2023-04-04T09:24:42.159Z,1.4
2023-04-04T09:25:45.432Z,1.4
2023-04-04T09:26:48.713Z,1.3
2023-04-04T09:27:52.010Z,1.5
2023-04-04T09:28:54.365Z,1.4
2023-04-04T09:29:56.638Z,1.2
2023-04-04T09:30:59.937Z,1.3
2023-04-04T09:32:02.338Z,1.3
2023-04-04T09:33:04.537Z,1.3
2023-04-04T09:34:07.857Z,1.3
2023-04-04T09:35:11.130Z,1.2
2023-04-04T09:36:14.403Z,1.4
2023-04-04T09:37:17.781Z,1.3
2023-04-04T09:38:20.998Z,1.4
2023-04-04T09:39:24.357Z,1.4
2023-04-04T09:40:27.745Z,1.2
2023-04-04T09:41:30.865Z,1.2
2023-04-04T09:42:34.161Z,1.4
2023-04-04T09:43:37.463Z,1.3
2023-04-04T09:44:40.835Z,1.3
2023-04-04T09:45:44.277Z,1.4
2023-04-04T09:46:46.376Z,1.4
2023-04-04T09:47:49.639Z,1.2
2023-04-04T09:48:52.928Z,1.5
2023-04-04T09:49:56.215Z,1.4
2023-04-04T09:50:59.613Z,1.5
2023-04-04T09:52:02.925Z,1.2
2023-04-04T09:53:06.095Z,1.3
2023-04-04T09:54:08.409Z,1.4
2023-04-04T09:55:10.725Z,1.3
2023-04-04T09:56:13.138Z,1.4
2023-04-04T09:57:15.359Z,1.4
2023-04-04T09:58:18.631Z,1.4
2023-04-04T09:59:21.922Z,1.2
2023-04-04T10:00:25.369Z,1.2
2023-04-04T10:01:28.517Z,1.2
2023-04-04T10:02:31.794Z,1.2
2023-04-04T10:03:35.098Z,1.3
2023-04-04T10:04:38.368Z,1.2
2023-04-04T10:05:41.694Z,1.4
2023-04-04T10:06:44.978Z,1.2
2023-04-04T10:07:48.258Z,1.3
2023-04-04T10:08:51.615Z,1.4
2023-04-04T10:09:54.898Z,1.3
2023-04-04T10:10:57.202Z,1.3
2023-04-04T10:12:00.636Z,1.4
2023-04-04T10:13:03.935Z,1.2
2023-04-04T10:14:07.208Z,1.2
2023-04-04T10:15:10.352Z,1.2
2023-04-04T10:16:13.692Z,1.2
2023-04-04T10:17:17.048Z,1.4
2023-04-04T10:18:19.222Z,1.2
2023-04-04T10:19:21.527Z,1.2
2023-04-04T10:20:23.853Z,1.3
2023-04-04T10:21:26.305Z,1.3
2023-04-04T10:22:29.569Z,1.2
2023-04-04T10:23:32.734Z,1.4
2023-04-04T10:24:36.018Z,1.3
2023-04-04T10:25:39.361Z,1.3
2023-04-04T10:26:42.748Z,1.1
2023-04-04T10:27:45.895Z,1.2
2023-04-04T10:28:49.179Z,1.2
2023-04-04T10:29:52.491Z,1.2
2023-04-04T10:30:55.773Z,1.1
2023-04-04T10:31:59.070Z,1.1
2023-04-04T10:33:02.386Z,1.3
2023-04-04T10:34:05.641Z,1.1
2023-04-04T10:35:08.059Z,0.9
2023-04-04T10:36:11.245Z,1.1
2023-04-04T10:37:14.532Z,1
2023-04-04T10:38:17.835Z,1
2023-04-04T10:39:21.106Z,1.1
2023-04-04T10:40:24.411Z,1.1
2023-04-04T10:41:27.807Z,1.2
2023-04-04T10:42:30.122Z,1.1
2023-04-04T10:43:32.337Z,0.9
2023-04-04T10:44:35.750Z,1.5
2023-04-04T10:45:37.956Z,1.2
2023-04-04T10:46:40.339Z,1.1
2023-04-04T10:47:43.519Z,1.1
2023-04-04T10:48:46.818Z,1
2023-04-04T10:49:50.106Z,1.1
2023-04-04T10:50:53.395Z,1
2023-04-04T10:51:56.697Z,0.9
2023-04-04T10:52:59.973Z,0.9
2023-04-04T10:55:06.564Z,0.9
2023-04-04T10:56:09.852Z,1.1
2023-04-04T10:57:13.143Z,1.1
2023-04-04T10:58:16.451Z,1
2023-04-04T10:59:20.358Z,0.9
2023-04-04T11:00:23.396Z,1.1
2023-04-04T11:01:26.607Z,1
2023-04-04T11:02:29.946Z,1
2023-04-04T11:03:33.204Z,0.9
2023-04-04T11:04:36.487Z,1
2023-04-04T11:05:39.785Z,1.1
2023-04-04T11:06:43.077Z,1.2
2023-04-04T11:07:46.379Z,1
2023-04-04T11:08:48.695Z,1.2
2023-04-04T11:09:50.981Z,0.9
2023-04-04T11:10:54.273Z,1.2
2023-04-04T11:11:56.611Z,1.1
2023-04-04T11:12:58.914Z,1
2023-04-04T11:14:02.191Z,1
2023-04-04T11:15:05.488Z,1
2023-04-04T11:16:08.787Z,1
2023-04-04T11:17:12.077Z,1.1
2023-04-04T11:18:15.369Z,0.9
2023-04-04T11:19:18.647Z,1.2
2023-04-04T11:20:21.928Z,1
2023-04-04T11:21:25.261Z,1.1
2023-04-04T11:22:28.535Z,1.1
2023-04-04T11:23:31.811Z,1
2023-04-04T11:24:35.133Z,1
2023-04-04T11:25:38.407Z,1.3
2023-04-04T11:26:40.723Z,1.1
2023-04-04T11:27:44.030Z,1.1
2023-04-04T11:28:47.376Z,1.1
2023-04-04T11:29:50.592Z,1.1
2023-04-04T11:30:53.923Z,1.1
2023-04-04T11:31:57.188Z,1.2
2023-04-04T11:33:00.473Z,1
2023-04-04T11:34:02.780Z,1.1
2023-04-04T11:35:05.100Z,1
2023-04-04T11:36:07.388Z,1.2
2023-04-04T11:37:09.713Z,1.2
2023-04-04T11:38:13.021Z,1.1
2023-04-04T11:39:16.299Z,1
2023-04-04T11:40:19.599Z,1
2023-04-04T11:41:23.428Z,1.1
2023-04-04T11:42:26.715Z,0.9
2023-04-04T11:43:30.020Z,1.1
2023-04-04T11:44:33.329Z,1.2
2023-04-04T11:45:36.599Z,1
2023-04-04T11:46:39.898Z,1
2023-04-04T11:47:43.195Z,1
2023-04-04T11:48:46.480Z,1
2023-04-04T11:49:49.777Z,1.1
2023-04-04T11:50:52.096Z,0.9
2023-04-04T11:51:55.397Z,1
2023-04-04T11:52:58.675Z,1.1
2023-04-04T11:54:01.972Z,0.9
2023-04-04T11:55:05.244Z,0.9
2023-04-04T11:56:08.534Z,1.1
2023-04-04T11:57:11.820Z,1.1
2023-04-04T11:58:14.167Z,0.9
2023-04-04T11:59:16.448Z,1
2023-04-04T12:00:18.769Z,1.1
2023-04-04T12:01:21.118Z,1
2023-04-04T12:02:24.360Z,1
2023-04-04T12:03:27.648Z,0.9
2023-04-04T12:04:30.960Z,1.1
2023-04-04T12:05:34.224Z,1
2023-04-04T12:06:37.677Z,1
2023-04-04T12:07:40.969Z,1.1
2023-04-04T12:08:44.206Z,1
2023-04-04T12:09:47.564Z,0.9
2023-04-04T12:10:50.895Z,1
2023-04-04T12:11:54.163Z,1
2023-04-04T12:12:57.303Z,1
2023-04-04T12:14:00.732Z,0.9
2023-04-04T12:15:03.022Z,1
2023-04-04T12:16:06.293Z,1.4
2023-04-04T12:17:09.478Z,0.9
2023-04-04T12:18:12.761Z,1
2023-04-04T12:19:16.145Z,1.3
2023-04-04T12:20:19.349Z,1.1
2023-04-04T12:21:22.789Z,1.1
2023-04-04T12:22:26.723Z,4.1
2023-04-04T12:23:29.014Z,26.3
2023-04-04T12:24:31.381Z,4.1
2023-04-04T12:25:33.629Z,8.7
2023-04-04T12:26:35.970Z,20.29
2023-04-04T12:27:39.154Z,37.4
2023-04-04T12:28:42.406Z,55.5
2023-04-04T12:29:45.915Z,172.8
2023-04-04T12:30:49.197Z,116.9
2023-04-04T12:31:52.402Z,124
2023-04-04T12:32:55.627Z,53.8
2023-04-04T12:33:58.997Z,136.8
2023-04-04T12:35:02.282Z,123.4
2023-04-04T12:36:05.449Z,114.8
2023-04-04T12:37:08.949Z,122.9
2023-04-04T12:38:12.044Z,123.2
2023-04-04T12:39:15.486Z,142
2023-04-04T12:40:18.733Z,97.3
2023-04-04T12:41:22.177Z,99
2023-04-04T12:42:25.532Z,86
2023-04-04T12:43:28.784Z,92
2023-04-04T12:44:32.157Z,90.4
2023-04-04T12:45:35.212Z,77.4
2023-04-04T12:46:38.621Z,83.1
2023-04-04T12:47:40.820Z,72.19
2023-04-04T12:48:43.268Z,72.6
2023-04-04T12:49:46.572Z,60.1
2023-04-04T12:50:49.872Z,62.2
2023-04-04T12:51:52.244Z,62.3
2023-04-04T12:53:57.809Z,61.4
2023-04-04T12:55:01.036Z,59.4
2023-04-04T12:56:04.358Z,57.5
2023-04-04T12:57:07.605Z,54.2
2023-04-04T12:58:10.752Z,55
2023-04-04T12:59:14.058Z,52.9
2023-04-04T13:00:17.354Z,52
2023-04-04T13:01:20.765Z,52.9
2023-04-04T13:02:24.038Z,50.5
2023-04-04T13:03:27.314Z,44.9
2023-04-04T13:04:30.543Z,45
2023-04-04T13:05:33.831Z,46.5
2023-04-04T13:06:36.370Z,45.7
2023-04-04T13:07:39.570Z,45.7
2023-04-04T13:08:42.895Z,41.8
2023-04-04T13:09:46.199Z,41.5
2023-04-04T13:10:49.370Z,40.3
2023-04-04T13:11:52.675Z,39.8
2023-04-04T13:12:55.909Z,39.5
2023-04-04T13:13:59.352Z,38.3
2023-04-04T13:15:01.724Z,36.7
2023-04-04T13:16:04.007Z,36.9
2023-04-04T13:17:06.328Z,34.8
2023-04-04T13:18:08.467Z,33.5
2023-04-04T13:19:11.937Z,32.5
2023-04-04T13:20:15.202Z,31
2023-04-04T13:21:18.482Z,29.1
2023-04-04T13:22:21.616Z,28
2023-04-04T13:23:25.122Z,28.8
2023-04-04T13:24:28.413Z,26.2
2023-04-04T13:25:31.490Z,27.4
2023-04-04T13:26:34.942Z,24
2023-04-04T13:27:38.273Z,25.4
2023-04-04T13:28:41.391Z,23.9
2023-04-04T13:29:44.729Z,22.9
2023-04-04T13:30:48.052Z,21.8
2023-04-04T13:31:50.307Z,22.4
2023-04-04T13:32:53.715Z,21.8
2023-04-04T13:33:57.015Z,20.6
2023-04-04T13:35:00.312Z,20.7
2023-04-04T13:36:03.621Z,20.7
2023-04-04T13:37:06.913Z,19.79
2023-04-04T13:38:10.210Z,19.9
2023-04-04T13:39:13.612Z,18.9
2023-04-04T13:40:15.752Z,18.29
2023-04-04T13:41:19.108Z,18.6
2023-04-04T13:42:22.494Z,17.29
2023-04-04T13:43:25.828Z,17.7
2023-04-04T13:44:28.925Z,16.5
2023-04-04T13:45:32.300Z,16.1
2023-04-04T13:46:35.689Z,16.6
2023-04-04T13:47:38.950Z,15.3
2023-04-04T13:48:42.077Z,15.8
2023-04-04T13:49:45.548Z,14.6
2023-04-04T13:50:48.814Z,14.9
2023-04-04T13:51:51.954Z,14.4
2023-04-04T13:52:55.430Z,13.9
2023-04-04T13:53:57.741Z,13.4
2023-04-04T13:55:01.063Z,13.8
2023-04-04T13:56:04.151Z,13.7
2023-04-04T13:57:07.607Z,12.5
2023-04-04T13:58:10.875Z,12.5
2023-04-04T13:59:14.216Z,12.5
2023-04-04T14:00:17.548Z,11.9
2023-04-04T14:01:19.820Z,11.8
2023-04-04T14:02:22.102Z,10.8
2023-04-04T14:03:24.418Z,10.5
2023-04-04T14:04:26.582Z,10.4
2023-04-04T14:05:29.968Z,10.4
2023-04-04T14:06:32.154Z,10.2
2023-04-04T14:07:34.667Z,9.8
2023-04-04T14:08:38.012Z,9.3
2023-04-04T14:09:41.226Z,9.5
2023-04-04T14:10:44.447Z,9.39
2023-04-04T14:11:47.756Z,9.1
2023-04-04T14:12:51.126Z,8.8
2023-04-04T14:13:54.356Z,8.2
2023-04-04T14:14:57.694Z,8.6
2023-04-04T14:16:00.974Z,8.39
2023-04-04T14:17:04.254Z,8.2
2023-04-04T14:18:07.500Z,8
2023-04-04T14:19:10.847Z,7.3
2023-04-04T14:20:14.157Z,7.2
2023-04-04T14:21:16.466Z,7.5
2023-04-04T14:22:19.833Z,7
2023-04-04T14:23:22.850Z,6.4
2023-04-04T14:24:26.304Z,6.5
2023-04-04T14:25:29.415Z,5.9
2023-04-04T14:26:32.914Z,6.2
2023-04-04T14:27:36.246Z,6.3
2023-04-04T14:28:38.537Z,6.3
2023-04-04T14:29:40.806Z,6.3
2023-04-04T14:30:43.150Z,6.5
2023-04-04T14:31:45.294Z,6.1
2023-04-04T14:32:48.641Z,5.5
2023-04-04T14:33:52.071Z,5.4